sensor_id;sensor_type;location;lat;lon;timestamp;pressure;altitude;pressure_sealevel;temperature;humidity
29385;BME280;16367;48.736;9.218;2024-01-15T00:00:24;-23106.81;;;-1.93;94.57
29385;BME280;16367;48.736;9.218;2024-01-15T00:02:26;-23108.91;;;-1.87;94.68
29385;BME280;16367;48.736;9.218;2024-01-15T00:04:27;-23108.75;;;-1.87;93.97
29385;BME280;16367;48.736;9.218;2024-01-15T00:06:29;-23107.78;;;-1.90;94.43
29385;BME280;16367;48.736;9.218;2024-01-15T00:08:31;-23107.31;;;-1.92;94.00
29385;BME280;16367;48.736;9.218;2024-01-15T00:15:00;-23108.75;;;-1.87;94.26
29385;BME280;16367;48.736;9.218;2024-01-15T00:17:02;-23107.63;;;-1.91;94.28
29385;BME280;16367;48.736;9.218;2024-01-15T00:19:03;-23107.78;;;-1.90;94.01
29385;BME280;16367;48.736;9.218;2024-01-15T00:21:05;-23106.34;;;-1.95;94.34
29385;BME280;16367;48.736;9.218;2024-01-15T00:23:06;-23106.19;;;-1.95;94.54
29385;BME280;16367;48.736;9.218;2024-01-15T00:25:08;-23107.47;;;-1.91;94.77
29385;BME280;16367;48.736;9.218;2024-01-15T00:27:09;-23101.38;;;-2.10;95.21
29385;BME280;16367;48.736;9.218;2024-01-15T00:29:11;-23101.88;;;-2.09;95.82
29385;BME280;16367;48.736;9.218;2024-01-15T00:31:16;-23100.09;;;-2.14;95.87
29385;BME280;16367;48.736;9.218;2024-01-15T00:39:31;-23098.19;;;-2.20;97.14
29385;BME280;16367;48.736;9.218;2024-01-15T00:41:33;-23098.81;;;-2.18;97.08
29385;BME280;16367;48.736;9.218;2024-01-15T00:43:34;-23098.81;;;-2.18;97.65
29385;BME280;16367;48.736;9.218;2024-01-15T00:45:35;-23098.03;;;-2.21;97.37
29385;BME280;16367;48.736;9.218;2024-01-15T00:47:37;-23097.53;;;-2.22;98.26
29385;BME280;16367;48.736;9.218;2024-01-15T00:49:38;-23095.31;;;-2.30;98.09
29385;BME280;16367;48.736;9.218;2024-01-15T00:51:40;-23097.06;;;-2.24;98.12
29385;BME280;16367;48.736;9.218;2024-01-15T00:53:42;-23096.56;;;-2.26;98.53
29385;BME280;16367;48.736;9.218;2024-01-15T00:55:44;-23096.25;;;-2.27;98.91
29385;BME280;16367;48.736;9.218;2024-01-15T01:02:17;-23094.03;;;-2.34;100.00
29385;BME280;16367;48.736;9.218;2024-01-15T01:04:18;-23095.63;;;-2.29;100.00
29385;BME280;16367;48.736;9.218;2024-01-15T01:06:19;-23094.66;;;-2.32;99.78
29385;BME280;16367;48.736;9.218;2024-01-15T01:08:21;-23094.97;;;-2.31;99.98
29385;BME280;16367;48.736;9.218;2024-01-15T01:10:22;-23095.31;;;-2.30;100.00
29385;BME280;16367;48.736;9.218;2024-01-15T01:12:23;-23097.69;;;-2.22;100.00
29385;BME280;16367;48.736;9.218;2024-01-15T01:14:25;-23096.56;;;-2.26;100.00
29385;BME280;16367;48.736;9.218;2024-01-15T01:16:26;-23096.91;;;-2.24;100.00
29385;BME280;16367;48.736;9.218;2024-01-15T01:18:28;-23095.78;;;-2.28;100.00
29385;BME280;16367;48.736;9.218;2024-01-15T01:22:43;-23098.03;;;-2.21;100.00
29385;BME280;16367;48.736;9.218;2024-01-15T01:24:44;-23097.84;;;-2.21;100.00
29385;BME280;16367;48.736;9.218;2024-01-15T01:26:45;-23103.78;;;-2.03;100.00
29385;BME280;16367;48.736;9.218;2024-01-15T01:28:47;-23104.75;;;-2.00;100.00
29385;BME280;16367;48.736;9.218;2024-01-15T01:30:48;-23103.16;;;-2.05;100.00
29385;BME280;16367;48.736;9.218;2024-01-15T01:32:50;-23103.63;;;-2.03;100.00
29385;BME280;16367;48.736;9.218;2024-01-15T01:34:51;-23103.63;;;-2.03;100.00
29385;BME280;16367;48.736;9.218;2024-01-15T01:36:53;-23103.94;;;-2.02;100.00
29385;BME280;16367;48.736;9.218;2024-01-15T01:38:55;-23103.78;;;-2.03;100.00
29385;BME280;16367;48.736;9.218;2024-01-15T01:45:07;-23106.81;;;-1.93;100.00
29385;BME280;16367;48.736;9.218;2024-01-15T01:47:09;-23108.41;;;-1.88;100.00
29385;BME280;16367;48.736;9.218;2024-01-15T01:49:11;-23107.63;;;-1.91;100.00
29385;BME280;16367;48.736;9.218;2024-01-15T01:51:14;-23110.34;;;-1.82;100.00
29385;BME280;16367;48.736;9.218;2024-01-15T01:53:16;-23109.38;;;-1.85;100.00
29385;BME280;16367;48.736;9.218;2024-01-15T01:55:18;-23109.06;;;-1.86;100.00
29385;BME280;16367;48.736;9.218;2024-01-15T01:57:20;-23112.56;;;-1.75;100.00
29385;BME280;16367;48.736;9.218;2024-01-15T01:59:22;-23113.88;;;-1.71;100.00
29385;BME280;16367;48.736;9.218;2024-01-15T02:01:25;-23111.47;;;-1.79;100.00
29385;BME280;16367;48.736;9.218;2024-01-15T02:07:40;-23111.94;;;-1.77;100.00
29385;BME280;16367;48.736;9.218;2024-01-15T02:09:42;-23110.19;;;-1.83;100.00
29385;BME280;16367;48.736;9.218;2024-01-15T02:11:43;-23110.19;;;-1.83;100.00
29385;BME280;16367;48.736;9.218;2024-01-15T02:13:47;-23109.69;;;-1.84;100.00
29385;BME280;16367;48.736;9.218;2024-01-15T02:15:49;-23112.09;;;-1.77;100.00
29385;BME280;16367;48.736;9.218;2024-01-15T02:17:58;-23111.78;;;-1.78;100.00
29385;BME280;16367;48.736;9.218;2024-01-15T02:19:59;-23110.66;;;-1.81;100.00
29385;BME280;16367;48.736;9.218;2024-01-15T02:22:01;-23110.66;;;-1.81;100.00
29385;BME280;16367;48.736;9.218;2024-01-15T02:24:04;-23111.13;;;-1.80;100.00
29385;BME280;16367;48.736;9.218;2024-01-15T02:32:19;-23113.53;;;-1.72;100.00
29385;BME280;16367;48.736;9.218;2024-01-15T02:34:20;-23111.47;;;-1.79;100.00
29385;BME280;16367;48.736;9.218;2024-01-15T02:36:22;-23111.78;;;-1.78;100.00
29385;BME280;16367;48.736;9.218;2024-01-15T02:38:24;-23109.84;;;-1.84;100.00
29385;BME280;16367;48.736;9.218;2024-01-15T02:40:25;-23109.69;;;-1.84;100.00
29385;BME280;16367;48.736;9.218;2024-01-15T02:42:26;-23109.69;;;-1.84;100.00
29385;BME280;16367;48.736;9.218;2024-01-15T02:44:28;-23109.06;;;-1.86;100.00
29385;BME280;16367;48.736;9.218;2024-01-15T02:46:29;-23106.66;;;-1.94;100.00
29385;BME280;16367;48.736;9.218;2024-01-15T02:48:31;-23107.31;;;-1.92;100.00
29385;BME280;16367;48.736;9.218;2024-01-15T02:54:47;-23105.22;;;-1.98;100.00
29385;BME280;16367;48.736;9.218;2024-01-15T02:56:48;-23103.94;;;-2.02;100.00
29385;BME280;16367;48.736;9.218;2024-01-15T02:58:49;-23103.47;;;-2.04;100.00
29385;BME280;16367;48.736;9.218;2024-01-15T03:00:51;-23101.06;;;-2.11;100.00
29385;BME280;16367;48.736;9.218;2024-01-15T03:02:52;-23101.88;;;-2.09;100.00
29385;BME280;16367;48.736;9.218;2024-01-15T03:04:53;-23100.59;;;-2.13;100.00
29385;BME280;16367;48.736;9.218;2024-01-15T03:06:55;-23099.16;;;-2.17;100.00
29385;BME280;16367;48.736;9.218;2024-01-15T03:08:56;-23101.06;;;-2.11;100.00
29385;BME280;16367;48.736;9.218;2024-01-15T03:10:58;-23096.91;;;-2.24;100.00
29385;BME280;16367;48.736;9.218;2024-01-15T03:16:14;-23096.75;;;-2.25;100.00
29385;BME280;16367;48.736;9.218;2024-01-15T03:18:15;-23097.22;;;-2.23;100.00
29385;BME280;16367;48.736;9.218;2024-01-15T03:20:17;-23099.28;;;-2.17;100.00
29385;BME280;16367;48.736;9.218;2024-01-15T03:22:18;-23097.84;;;-2.21;100.00
29385;BME280;16367;48.736;9.218;2024-01-15T03:24:19;-23100.91;;;-2.12;100.00
29385;BME280;16367;48.736;9.218;2024-01-15T03:26:21;-23098.50;;;-2.19;100.00
29385;BME280;16367;48.736;9.218;2024-01-15T03:28:22;-23098.81;;;-2.18;100.00
29385;BME280;16367;48.736;9.218;2024-01-15T03:30:23;-23098.50;;;-2.19;100.00
29385;BME280;16367;48.736;9.218;2024-01-15T03:32:25;-23100.09;;;-2.14;100.00
29385;BME280;16367;48.736;9.218;2024-01-15T03:37:41;-23101.38;;;-2.10;100.00
29385;BME280;16367;48.736;9.218;2024-01-15T03:39:42;-23101.06;;;-2.11;100.00
29385;BME280;16367;48.736;9.218;2024-01-15T03:41:43;-23101.06;;;-2.11;100.00
29385;BME280;16367;48.736;9.218;2024-01-15T03:43:45;-23102.66;;;-2.06;100.00
29385;BME280;16367;48.736;9.218;2024-01-15T03:45:46;-23102.34;;;-2.07;100.00
29385;BME280;16367;48.736;9.218;2024-01-15T03:47:48;-23101.88;;;-2.09;100.00
29385;BME280;16367;48.736;9.218;2024-01-15T03:49:49;-23101.38;;;-2.10;100.00
29385;BME280;16367;48.736;9.218;2024-01-15T03:51:51;-23103.94;;;-2.02;100.00
29385;BME280;16367;48.736;9.218;2024-01-15T03:53:53;-23104.59;;;-2.00;100.00
29385;BME280;16367;48.736;9.218;2024-01-15T04:02:04;-23109.22;;;-1.86;100.00
29385;BME280;16367;48.736;9.218;2024-01-15T04:04:06;-23111.13;;;-1.80;100.00
29385;BME280;16367;48.736;9.218;2024-01-15T04:06:08;-23108.91;;;-1.87;100.00
29385;BME280;16367;48.736;9.218;2024-01-15T04:08:09;-23111.31;;;-1.79;100.00
29385;BME280;16367;48.736;9.218;2024-01-15T04:10:11;-23111.94;;;-1.77;100.00
29385;BME280;16367;48.736;9.218;2024-01-15T04:12:12;-23111.31;;;-1.79;100.00
29385;BME280;16367;48.736;9.218;2024-01-15T04:14:13;-23112.56;;;-1.75;100.00
29385;BME280;16367;48.736;9.218;2024-01-15T04:16:15;-23112.56;;;-1.75;100.00
29385;BME280;16367;48.736;9.218;2024-01-15T04:18:17;-23112.56;;;-1.75;100.00
29385;BME280;16367;48.736;9.218;2024-01-15T04:23:00;-23114.19;;;-1.70;100.00
29385;BME280;16367;48.736;9.218;2024-01-15T04:25:03;-23116.09;;;-1.64;100.00
29385;BME280;16367;48.736;9.218;2024-01-15T04:27:05;-23116.75;;;-1.62;100.00
29385;BME280;16367;48.736;9.218;2024-01-15T04:29:06;-23116.91;;;-1.62;100.00
29385;BME280;16367;48.736;9.218;2024-01-15T04:31:07;-23119.78;;;-1.53;100.00
29385;BME280;16367;48.736;9.218;2024-01-15T04:33:09;-23119.78;;;-1.53;100.00
29385;BME280;16367;48.736;9.218;2024-01-15T04:35:11;-23120.91;;;-1.49;100.00
29385;BME280;16367;48.736;9.218;2024-01-15T04:37:13;-23121.69;;;-1.46;100.00
29385;BME280;16367;48.736;9.218;2024-01-15T04:39:15;-23122.81;;;-1.43;100.00
29385;BME280;16367;48.736;9.218;2024-01-15T04:45:30;-23125.22;;;-1.35;100.00
29385;BME280;16367;48.736;9.218;2024-01-15T04:47:31;-23125.22;;;-1.35;100.00
29385;BME280;16367;48.736;9.218;2024-01-15T04:49:32;-23126.97;;;-1.30;100.00
29385;BME280;16367;48.736;9.218;2024-01-15T04:51:34;-23128.25;;;-1.26;100.00
29385;BME280;16367;48.736;9.218;2024-01-15T04:53:36;-23129.22;;;-1.23;100.00
29385;BME280;16367;48.736;9.218;2024-01-15T04:55:37;-23130.50;;;-1.19;99.70
29385;BME280;16367;48.736;9.218;2024-01-15T04:57:39;-23129.38;;;-1.22;99.70
29385;BME280;16367;48.736;9.218;2024-01-15T04:59:40;-23130.97;;;-1.17;100.00
29385;BME280;16367;48.736;9.218;2024-01-15T05:01:42;-23129.84;;;-1.21;99.67
29385;BME280;16367;48.736;9.218;2024-01-15T05:07:11;-23132.56;;;-1.12;99.97
29385;BME280;16367;48.736;9.218;2024-01-15T05:09:13;-23130.81;;;-1.18;100.00
29385;BME280;16367;48.736;9.218;2024-01-15T05:11:14;-23132.09;;;-1.14;100.00
29385;BME280;16367;48.736;9.218;2024-01-15T05:13:16;-23132.56;;;-1.12;99.95
29385;BME280;16367;48.736;9.218;2024-01-15T05:15:17;-23131.47;;;-1.16;100.00
29385;BME280;16367;48.736;9.218;2024-01-15T05:17:19;-23133.06;;;-1.11;100.00
29385;BME280;16367;48.736;9.218;2024-01-15T05:19:20;-23132.41;;;-1.13;100.00
29385;BME280;16367;48.736;9.218;2024-01-15T05:21:22;-23132.41;;;-1.13;100.00
29385;BME280;16367;48.736;9.218;2024-01-15T05:23:24;-23132.41;;;-1.13;100.00
29385;BME280;16367;48.736;9.218;2024-01-15T05:31:39;-23133.69;;;-1.09;100.00
29385;BME280;16367;48.736;9.218;2024-01-15T05:33:41;-23134.03;;;-1.08;100.00
29385;BME280;16367;48.736;9.218;2024-01-15T05:35:42;-23133.69;;;-1.09;100.00
29385;BME280;16367;48.736;9.218;2024-01-15T05:37:45;-23134.97;;;-1.05;100.00
29385;BME280;16367;48.736;9.218;2024-01-15T05:39:46;-23133.38;;;-1.10;100.00
29385;BME280;16367;48.736;9.218;2024-01-15T05:41:48;-23134.97;;;-1.05;100.00
29385;BME280;16367;48.736;9.218;2024-01-15T05:43:49;-23136.56;;;-1.00;100.00
29385;BME280;16367;48.736;9.218;2024-01-15T05:45:50;-23135.28;;;-1.04;100.00
29385;BME280;16367;48.736;9.218;2024-01-15T05:47:53;-23133.06;;;-1.11;100.00
29385;BME280;16367;48.736;9.218;2024-01-15T05:53:35;-23132.41;;;-1.13;100.00
29385;BME280;16367;48.736;9.218;2024-01-15T05:55:36;-23129.84;;;-1.21;100.00
29385;BME280;16367;48.736;9.218;2024-01-15T05:57:38;-23127.78;;;-1.27;100.00
29385;BME280;16367;48.736;9.218;2024-01-15T05:59:40;-23127.63;;;-1.28;100.00
29385;BME280;16367;48.736;9.218;2024-01-15T06:01:41;-23128.25;;;-1.26;100.00
29385;BME280;16367;48.736;9.218;2024-01-15T06:03:43;-23128.91;;;-1.24;100.00
29385;BME280;16367;48.736;9.218;2024-01-15T06:05:44;-23129.22;;;-1.23;100.00
29385;BME280;16367;48.736;9.218;2024-01-15T06:07:45;-23126.03;;;-1.33;100.00
29385;BME280;16367;48.736;9.218;2024-01-15T06:09:48;-23127.63;;;-1.28;100.00
29385;BME280;16367;48.736;9.218;2024-01-15T06:16:13;-23125.69;;;-1.34;100.00
29385;BME280;16367;48.736;9.218;2024-01-15T06:18:15;-23127.63;;;-1.28;100.00
29385;BME280;16367;48.736;9.218;2024-01-15T06:20:17;-23127.63;;;-1.28;100.00
29385;BME280;16367;48.736;9.218;2024-01-15T06:22:18;-23125.53;;;-1.34;100.00
29385;BME280;16367;48.736;9.218;2024-01-15T06:24:20;-23128.09;;;-1.26;100.00
29385;BME280;16367;48.736;9.218;2024-01-15T06:26:21;-23127.28;;;-1.29;100.00
29385;BME280;16367;48.736;9.218;2024-01-15T06:28:23;-23128.41;;;-1.25;100.00
29385;BME280;16367;48.736;9.218;2024-01-15T06:30:24;-23128.75;;;-1.24;100.00
29385;BME280;16367;48.736;9.218;2024-01-15T06:32:26;-23129.38;;;-1.22;100.00
29385;BME280;16367;48.736;9.218;2024-01-15T06:38:43;-23128.25;;;-1.26;100.00
29385;BME280;16367;48.736;9.218;2024-01-15T06:40:45;-23127.63;;;-1.28;100.00
29385;BME280;16367;48.736;9.218;2024-01-15T06:42:52;-23129.53;;;-1.22;100.00
29385;BME280;16367;48.736;9.218;2024-01-15T06:44:54;-23128.75;;;-1.24;100.00
29385;BME280;16367;48.736;9.218;2024-01-15T06:46:55;-23128.75;;;-1.24;100.00
29385;BME280;16367;48.736;9.218;2024-01-15T06:48:58;-23129.69;;;-1.21;100.00
29385;BME280;16367;48.736;9.218;2024-01-15T06:50:59;-23127.47;;;-1.28;100.00
29385;BME280;16367;48.736;9.218;2024-01-15T06:53:01;-23128.09;;;-1.26;100.00
29385;BME280;16367;48.736;9.218;2024-01-15T06:55:04;-23129.84;;;-1.21;100.00
29385;BME280;16367;48.736;9.218;2024-01-15T07:04:37;-23132.25;;;-1.13;100.00
29385;BME280;16367;48.736;9.218;2024-01-15T07:06:44;-23132.72;;;-1.12;100.00
29385;BME280;16367;48.736;9.218;2024-01-15T07:08:46;-23132.91;;;-1.11;100.00
29385;BME280;16367;48.736;9.218;2024-01-15T07:10:47;-23133.53;;;-1.09;100.00
29385;BME280;16367;48.736;9.218;2024-01-15T07:12:48;-23133.69;;;-1.09;100.00
29385;BME280;16367;48.736;9.218;2024-01-15T07:14:50;-23136.09;;;-1.01;100.00
29385;BME280;16367;48.736;9.218;2024-01-15T07:16:51;-23135.13;;;-1.04;100.00
29385;BME280;16367;48.736;9.218;2024-01-15T07:18:52;-23137.22;;;-0.98;100.00
29385;BME280;16367;48.736;9.218;2024-01-15T07:20:55;-23136.88;;;-0.99;99.84
29385;BME280;16367;48.736;9.218;2024-01-15T07:27:34;-23140.56;;;-0.87;98.03
29385;BME280;16367;48.736;9.218;2024-01-15T07:29:35;-23140.91;;;-0.86;97.11
29385;BME280;16367;48.736;9.218;2024-01-15T07:31:38;-23140.25;;;-0.88;97.19
29385;BME280;16367;48.736;9.218;2024-01-15T07:33:40;-23142.97;;;-0.80;96.98
29385;BME280;16367;48.736;9.218;2024-01-15T07:35:41;-23141.69;;;-0.84;96.62
29385;BME280;16367;48.736;9.218;2024-01-15T07:37:42;-23141.84;;;-0.83;95.99
29385;BME280;16367;48.736;9.218;2024-01-15T07:39:44;-23142.16;;;-0.82;96.32
29385;BME280;16367;48.736;9.218;2024-01-15T07:41:47;-23140.41;;;-0.88;96.04
29385;BME280;16367;48.736;9.218;2024-01-15T07:43:49;-23142.97;;;-0.80;96.16
29385;BME280;16367;48.736;9.218;2024-01-15T07:52:01;-23145.22;;;-0.72;95.02
29385;BME280;16367;48.736;9.218;2024-01-15T07:54:03;-23143.28;;;-0.79;95.03
29385;BME280;16367;48.736;9.218;2024-01-15T07:56:04;-23143.44;;;-0.78;94.48
29385;BME280;16367;48.736;9.218;2024-01-15T07:58:06;-23144.56;;;-0.75;94.88
29385;BME280;16367;48.736;9.218;2024-01-15T08:00:17;-23143.28;;;-0.79;94.68
29385;BME280;16367;48.736;9.218;2024-01-15T08:02:19;-23144.72;;;-0.74;94.49
29385;BME280;16367;48.736;9.218;2024-01-15T08:04:20;-23144.09;;;-0.76;93.79
29385;BME280;16367;48.736;9.218;2024-01-15T08:06:23;-23146.66;;;-0.68;93.99
29385;BME280;16367;48.736;9.218;2024-01-15T08:08:25;-23145.06;;;-0.73;93.96
29385;BME280;16367;48.736;9.218;2024-01-15T08:13:27;-23145.53;;;-0.71;93.00
29385;BME280;16367;48.736;9.218;2024-01-15T08:15:28;-23145.84;;;-0.70;92.82
29385;BME280;16367;48.736;9.218;2024-01-15T08:17:32;-23144.41;;;-0.75;93.01
29385;BME280;16367;48.736;9.218;2024-01-15T08:19:34;-23146.50;;;-0.68;93.12
29385;BME280;16367;48.736;9.218;2024-01-15T08:21:35;-23147.13;;;-0.66;92.28
29385;BME280;16367;48.736;9.218;2024-01-15T08:23:37;-23147.75;;;-0.64;92.54
29385;BME280;16367;48.736;9.218;2024-01-15T08:25:38;-23148.09;;;-0.63;92.43
29385;BME280;16367;48.736;9.218;2024-01-15T08:27:40;-23146.66;;;-0.68;92.33
29385;BME280;16367;48.736;9.218;2024-01-15T08:29:42;-23147.13;;;-0.66;92.05
29385;BME280;16367;48.736;9.218;2024-01-15T08:35:56;-23152.56;;;-0.49;90.90
29385;BME280;16367;48.736;9.218;2024-01-15T08:37:58;-23152.25;;;-0.50;90.73
29385;BME280;16367;48.736;9.218;2024-01-15T08:39:59;-23152.88;;;-0.48;89.97
29385;BME280;16367;48.736;9.218;2024-01-15T08:42:01;-23152.41;;;-0.50;90.15
29385;BME280;16367;48.736;9.218;2024-01-15T08:44:02;-23154.63;;;-0.43;90.02
29385;BME280;16367;48.736;9.218;2024-01-15T08:46:04;-23154.81;;;-0.42;89.26
29385;BME280;16367;48.736;9.218;2024-01-15T08:48:06;-23157.03;;;-0.35;88.79
29385;BME280;16367;48.736;9.218;2024-01-15T08:50:08;-23164.06;;;-0.13;88.91
29385;BME280;16367;48.736;9.218;2024-01-15T08:52:11;-23165.66;;;-0.08;87.32
29385;BME280;16367;48.736;9.218;2024-01-15T09:00:27;-23168.88;;;0.02;86.24
29385;BME280;16367;48.736;9.218;2024-01-15T09:02:29;-23168.22;;;0.00;85.83
29385;BME280;16367;48.736;9.218;2024-01-15T09:04:30;-23167.09;;;-0.04;85.03
29385;BME280;16367;48.736;9.218;2024-01-15T09:06:32;-23168.53;;;0.01;84.67
29385;BME280;16367;48.736;9.218;2024-01-15T09:08:34;-23170.16;;;0.06;84.07
29385;BME280;16367;48.736;9.218;2024-01-15T09:10:35;-23168.06;;;-0.01;84.15
29385;BME280;16367;48.736;9.218;2024-01-15T09:12:37;-23169.66;;;0.05;84.18
29385;BME280;16367;48.736;9.218;2024-01-15T09:14:39;-23169.66;;;0.05;83.33
29385;BME280;16367;48.736;9.218;2024-01-15T09:16:42;-23167.91;;;-0.01;83.23
29385;BME280;16367;48.736;9.218;2024-01-15T09:22:56;-23172.84;;;0.15;83.00
29385;BME280;16367;48.736;9.218;2024-01-15T09:24:58;-23174.94;;;0.21;82.72
29385;BME280;16367;48.736;9.218;2024-01-15T09:26:59;-23173.97;;;0.18;82.56
29385;BME280;16367;48.736;9.218;2024-01-15T09:29:01;-23173.19;;;0.16;82.04
29385;BME280;16367;48.736;9.218;2024-01-15T09:31:03;-23175.41;;;0.23;82.27
29385;BME280;16367;48.736;9.218;2024-01-15T09:33:05;-23175.88;;;0.24;82.10
29385;BME280;16367;48.736;9.218;2024-01-15T09:35:07;-23174.28;;;0.19;82.41
29385;BME280;16367;48.736;9.218;2024-01-15T09:37:09;-23173.66;;;0.17;82.16
29385;BME280;16367;48.736;9.218;2024-01-15T09:39:15;-23177.50;;;0.29;81.89
29385;BME280;16367;48.736;9.218;2024-01-15T09:43:37;-23179.88;;;0.37;81.91
29385;BME280;16367;48.736;9.218;2024-01-15T09:45:39;-23182.91;;;0.46;81.45
29385;BME280;16367;48.736;9.218;2024-01-15T09:47:41;-23182.75;;;0.46;81.15
29385;BME280;16367;48.736;9.218;2024-01-15T09:49:47;-23180.84;;;0.40;80.71
29385;BME280;16367;48.736;9.218;2024-01-15T09:51:48;-23183.25;;;0.47;80.80
29385;BME280;16367;48.736;9.218;2024-01-15T09:54:04;-23185.16;;;0.53;80.63
29385;BME280;16367;48.736;9.218;2024-01-15T09:56:05;-23187.06;;;0.59;80.78
29385;BME280;16367;48.736;9.218;2024-01-15T09:58:07;-23187.22;;;0.60;80.91
29385;BME280;16367;48.736;9.218;2024-01-15T10:00:10;-23188.03;;;0.62;80.92
29385;BME280;16367;48.736;9.218;2024-01-15T10:05:33;-23189.31;;;0.66;80.43
29385;BME280;16367;48.736;9.218;2024-01-15T10:07:36;-23186.13;;;0.56;80.23
29385;BME280;16367;48.736;9.218;2024-01-15T10:09:38;-23182.28;;;0.44;79.99
29385;BME280;16367;48.736;9.218;2024-01-15T10:11:40;-23186.75;;;0.58;80.47
29385;BME280;16367;48.736;9.218;2024-01-15T10:13:43;-23184.53;;;0.51;80.88
29385;BME280;16367;48.736;9.218;2024-01-15T10:15:46;-23187.88;;;0.62;80.41
29385;BME280;16367;48.736;9.218;2024-01-15T10:17:48;-23183.88;;;0.49;80.48
29385;BME280;16367;48.736;9.218;2024-01-15T10:19:49;-23183.25;;;0.47;80.48
29385;BME280;16367;48.736;9.218;2024-01-15T10:21:52;-23188.03;;;0.62;80.30
29385;BME280;16367;48.736;9.218;2024-01-15T10:30:26;-23188.66;;;0.64;80.80
29385;BME280;16367;48.736;9.218;2024-01-15T10:32:28;-23187.22;;;0.60;80.41
29385;BME280;16367;48.736;9.218;2024-01-15T10:34:30;-23186.59;;;0.58;80.62
29385;BME280;16367;48.736;9.218;2024-01-15T10:36:32;-23189.47;;;0.67;80.59
29385;BME280;16367;48.736;9.218;2024-01-15T10:38:34;-23191.22;;;0.72;80.76
29385;BME280;16367;48.736;9.218;2024-01-15T10:40:35;-23187.22;;;0.60;80.81
29385;BME280;16367;48.736;9.218;2024-01-15T10:42:36;-23185.47;;;0.54;81.27
29385;BME280;16367;48.736;9.218;2024-01-15T10:45:03;-23188.19;;;0.63;81.56
29385;BME280;16367;48.736;9.218;2024-01-15T10:47:31;-23190.91;;;0.71;82.10
29385;BME280;16367;48.736;9.218;2024-01-15T10:53:47;-23188.84;;;0.65;82.60
29385;BME280;16367;48.736;9.218;2024-01-15T10:55:49;-23186.75;;;0.58;82.52
29385;BME280;16367;48.736;9.218;2024-01-15T10:57:53;-23190.09;;;0.69;82.34
29385;BME280;16367;48.736;9.218;2024-01-15T10:59:54;-23190.91;;;0.71;82.13
29385;BME280;16367;48.736;9.218;2024-01-15T11:01:56;-23189.78;;;0.68;82.50
29385;BME280;16367;48.736;9.218;2024-01-15T11:03:58;-23190.28;;;0.69;82.32
29385;BME280;16367;48.736;9.218;2024-01-15T11:06:00;-23191.22;;;0.72;82.55
29385;BME280;16367;48.736;9.218;2024-01-15T11:08:01;-23194.75;;;0.84;82.62
29385;BME280;16367;48.736;9.218;2024-01-15T11:10:05;-23188.66;;;0.64;82.64
29385;BME280;16367;48.736;9.218;2024-01-15T11:16:19;-23187.88;;;0.62;84.39
29385;BME280;16367;48.736;9.218;2024-01-15T11:18:21;-23185.97;;;0.56;84.90
29385;BME280;16367;48.736;9.218;2024-01-15T11:20:23;-23190.28;;;0.69;86.08
29385;BME280;16367;48.736;9.218;2024-01-15T11:22:51;-23189.31;;;0.66;86.46
29385;BME280;16367;48.736;9.218;2024-01-15T11:24:53;-23184.53;;;0.51;87.74
29385;BME280;16367;48.736;9.218;2024-01-15T11:26:54;-23189.16;;;0.66;88.34
29385;BME280;16367;48.736;9.218;2024-01-15T11:28:56;-23185.16;;;0.53;88.29
29385;BME280;16367;48.736;9.218;2024-01-15T11:30:59;-23182.75;;;0.46;88.64
29385;BME280;16367;48.736;9.218;2024-01-15T11:33:02;-23185.78;;;0.55;88.70
29385;BME280;16367;48.736;9.218;2024-01-15T11:39:41;-23187.41;;;0.60;88.04
29385;BME280;16367;48.736;9.218;2024-01-15T11:41:47;-23193.16;;;0.79;88.01
29385;BME280;16367;48.736;9.218;2024-01-15T11:43:48;-23192.50;;;0.77;88.08
29385;BME280;16367;48.736;9.218;2024-01-15T11:45:52;-23193.16;;;0.79;88.75
29385;BME280;16367;48.736;9.218;2024-01-15T11:48:09;-23190.59;;;0.70;89.47
29385;BME280;16367;48.736;9.218;2024-01-15T11:50:11;-23190.44;;;0.70;90.39
29385;BME280;16367;48.736;9.218;2024-01-15T11:52:16;-23185.47;;;0.54;91.38
29385;BME280;16367;48.736;9.218;2024-01-15T11:54:18;-23182.75;;;0.46;92.13
29385;BME280;16367;48.736;9.218;2024-01-15T11:56:22;-23186.75;;;0.58;92.87
29385;BME280;16367;48.736;9.218;2024-01-15T12:02:39;-23182.44;;;0.45;94.36
29385;BME280;16367;48.736;9.218;2024-01-15T12:04:41;-23184.03;;;0.50;94.60
29385;BME280;16367;48.736;9.218;2024-01-15T12:06:43;-23181.16;;;0.41;94.89
29385;BME280;16367;48.736;9.218;2024-01-15T12:08:46;-23182.91;;;0.46;95.50
29385;BME280;16367;48.736;9.218;2024-01-15T12:10:47;-23180.69;;;0.39;95.80
29385;BME280;16367;48.736;9.218;2024-01-15T12:13:09;-23182.75;;;0.46;95.91
29385;BME280;16367;48.736;9.218;2024-01-15T12:15:11;-23184.69;;;0.52;96.21
29385;BME280;16367;48.736;9.218;2024-01-15T12:17:13;-23179.41;;;0.35;98.86
29385;BME280;16367;48.736;9.218;2024-01-15T12:19:15;-23176.84;;;0.27;100.00
29385;BME280;16367;48.736;9.218;2024-01-15T12:27:30;-23166.78;;;-0.05;100.00
29385;BME280;16367;48.736;9.218;2024-01-15T12:29:32;-23165.81;;;-0.08;100.00
29385;BME280;16367;48.736;9.218;2024-01-15T12:31:34;-23162.16;;;-0.19;100.00
29385;BME280;16367;48.736;9.218;2024-01-15T12:33:36;-23159.91;;;-0.26;100.00
29385;BME280;16367;48.736;9.218;2024-01-15T12:35:38;-23159.91;;;-0.26;100.00
29385;BME280;16367;48.736;9.218;2024-01-15T12:37:40;-23148.72;;;-0.61;100.00
29385;BME280;16367;48.736;9.218;2024-01-15T12:39:42;-23150.66;;;-0.55;100.00
29385;BME280;16367;48.736;9.218;2024-01-15T12:41:44;-23151.28;;;-0.53;100.00
29385;BME280;16367;48.736;9.218;2024-01-15T12:43:47;-23148.25;;;-0.63;100.00
29385;BME280;16367;48.736;9.218;2024-01-15T12:52:02;-18909.63;;;-0.38;100.00
29385;BME280;16367;48.736;9.218;2024-01-15T12:54:04;-19446.78;;;-0.47;100.00
29385;BME280;16367;48.736;9.218;2024-01-15T12:56:05;-18539.84;;;-0.42;100.00
29385;BME280;16367;48.736;9.218;2024-01-15T12:58:07;-18466.53;;;-0.59;100.00
29385;BME280;16367;48.736;9.218;2024-01-15T13:00:09;-18410.59;;;-0.55;100.00
29385;BME280;16367;48.736;9.218;2024-01-15T13:02:13;-18843.50;;;-0.55;100.00
29385;BME280;16367;48.736;9.218;2024-01-15T13:04:21;-19092.00;;;-0.41;100.00
29385;BME280;16367;48.736;9.218;2024-01-15T13:06:25;-19715.97;;;-0.40;100.00
29385;BME280;16367;48.736;9.218;2024-01-15T13:08:27;-20442.09;;;-0.44;100.00
29385;BME280;16367;48.736;9.218;2024-01-15T13:14:43;-21855.56;;;-0.32;100.00
29385;BME280;16367;48.736;9.218;2024-01-15T13:16:44;-21604.03;;;-0.29;100.00